sensor_id;sensor_type;location;lat;lon;timestamp;temperature;humidity
17007;DHT22;8620;51.168;4.154;2022-09-13T00:01:17;20.30;99.90
17007;DHT22;8620;51.168;4.154;2022-09-13T00:03:43;20.30;99.90
17007;DHT22;8620;51.168;4.154;2022-09-13T00:06:12;20.30;99.90
17007;DHT22;8620;51.168;4.154;2022-09-13T00:08:40;20.30;99.90
17007;DHT22;8620;51.168;4.154;2022-09-13T00:11:11;20.40;99.90
17007;DHT22;8620;51.168;4.154;2022-09-13T00:13:43;20.40;99.90
17007;DHT22;8620;51.168;4.154;2022-09-13T00:16:14;20.50;99.90
17007;DHT22;8620;51.168;4.154;2022-09-13T00:18:42;20.60;99.90
17007;DHT22;8620;51.168;4.154;2022-09-13T00:21:13;21.10;99.90
17007;DHT22;8620;51.168;4.154;2022-09-13T00:23:46;21.40;99.90
17007;DHT22;8620;51.168;4.154;2022-09-13T00:26:27;21.40;99.90
17007;DHT22;8620;51.168;4.154;2022-09-13T00:28:55;21.40;99.90
17007;DHT22;8620;51.168;4.154;2022-09-13T00:31:24;21.50;99.90
17007;DHT22;8620;51.168;4.154;2022-09-13T00:33:52;21.10;99.90
17007;DHT22;8620;51.168;4.154;2022-09-13T00:36:18;20.90;99.90
17007;DHT22;8620;51.168;4.154;2022-09-13T00:38:44;20.70;99.90
17007;DHT22;8620;51.168;4.154;2022-09-13T00:41:13;20.80;99.90
17007;DHT22;8620;51.168;4.154;2022-09-13T00:43:58;20.90;99.90
17007;DHT22;8620;51.168;4.154;2022-09-13T00:46:39;20.90;99.90
17007;DHT22;8620;51.168;4.154;2022-09-13T00:51:53;21.00;99.90
17007;DHT22;8620;51.168;4.154;2022-09-13T00:54:24;20.80;99.90
17007;DHT22;8620;51.168;4.154;2022-09-13T00:56:55;20.50;99.90
17007;DHT22;8620;51.168;4.154;2022-09-13T00:59:34;20.30;99.90
17007;DHT22;8620;51.168;4.154;2022-09-13T01:02:03;20.20;99.90
17007;DHT22;8620;51.168;4.154;2022-09-13T01:04:32;20.10;99.90
17007;DHT22;8620;51.168;4.154;2022-09-13T01:07:03;19.90;99.90
17007;DHT22;8620;51.168;4.154;2022-09-13T01:09:31;19.90;99.90
17007;DHT22;8620;51.168;4.154;2022-09-13T01:12:10;20.20;99.90
17007;DHT22;8620;51.168;4.154;2022-09-13T01:15:00;20.40;99.90
17007;DHT22;8620;51.168;4.154;2022-09-13T01:17:30;20.30;99.90
17007;DHT22;8620;51.168;4.154;2022-09-13T01:19:58;20.20;99.90
17007;DHT22;8620;51.168;4.154;2022-09-13T01:28:20;20.80;99.90
17007;DHT22;8620;51.168;4.154;2022-09-13T01:36:53;21.00;99.90
17007;DHT22;8620;51.168;4.154;2022-09-13T01:46:38;20.60;99.90
17007;DHT22;8620;51.168;4.154;2022-09-13T01:52:06;20.70;99.90
17007;DHT22;8620;51.168;4.154;2022-09-13T02:06:28;20.40;99.90
17007;DHT22;8620;51.168;4.154;2022-09-13T02:09:00;20.60;99.90
17007;DHT22;8620;51.168;4.154;2022-09-13T02:11:28;20.70;99.90
17007;DHT22;8620;51.168;4.154;2022-09-13T02:14:11;20.80;99.90
17007;DHT22;8620;51.168;4.154;2022-09-13T02:19:48;20.80;99.90
17007;DHT22;8620;51.168;4.154;2022-09-13T02:22:20;20.70;99.90
17007;DHT22;8620;51.168;4.154;2022-09-13T02:24:54;20.60;99.90
17007;DHT22;8620;51.168;4.154;2022-09-13T02:27:27;20.70;99.90
17007;DHT22;8620;51.168;4.154;2022-09-13T02:29:59;20.40;99.90
17007;DHT22;8620;51.168;4.154;2022-09-13T02:32:32;20.30;99.90
17007;DHT22;8620;51.168;4.154;2022-09-13T02:35:14;20.30;99.90
17007;DHT22;8620;51.168;4.154;2022-09-13T02:37:46;20.30;99.90
17007;DHT22;8620;51.168;4.154;2022-09-13T02:40:17;20.30;99.90
17007;DHT22;8620;51.168;4.154;2022-09-13T02:43:13;20.20;99.90
17007;DHT22;8620;51.168;4.154;2022-09-13T02:46:13;20.00;99.90
17007;DHT22;8620;51.168;4.154;2022-09-13T02:52:18;20.50;99.90
17007;DHT22;8620;51.168;4.154;2022-09-13T03:00:38;20.80;99.90
17007;DHT22;8620;51.168;4.154;2022-09-13T03:03:09;20.80;99.90
17007;DHT22;8620;51.168;4.154;2022-09-13T03:05:35;20.60;99.90
17007;DHT22;8620;51.168;4.154;2022-09-13T03:08:02;20.60;99.90
17007;DHT22;8620;51.168;4.154;2022-09-13T03:27:22;20.50;99.90
17007;DHT22;8620;51.168;4.154;2022-09-13T03:41:20;20.50;99.90
17007;DHT22;8620;51.168;4.154;2022-09-13T03:43:55;20.50;99.90
17007;DHT22;8620;51.168;4.154;2022-09-13T03:46:46;20.50;99.90
17007;DHT22;8620;51.168;4.154;2022-09-13T03:49:15;20.50;99.90
17007;DHT22;8620;51.168;4.154;2022-09-13T03:51:44;20.70;99.90
17007;DHT22;8620;51.168;4.154;2022-09-13T03:54:22;20.50;99.90
17007;DHT22;8620;51.168;4.154;2022-09-13T03:59:37;20.80;99.90
17007;DHT22;8620;51.168;4.154;2022-09-13T04:02:05;20.40;99.90
17007;DHT22;8620;51.168;4.154;2022-09-13T04:04:37;20.00;99.90
17007;DHT22;8620;51.168;4.154;2022-09-13T04:07:03;20.00;99.90
17007;DHT22;8620;51.168;4.154;2022-09-13T04:09:30;20.20;99.90
17007;DHT22;8620;51.168;4.154;2022-09-13T04:11:56;20.40;99.90
17007;DHT22;8620;51.168;4.154;2022-09-13T04:14:22;20.40;99.90
17007;DHT22;8620;51.168;4.154;2022-09-13T04:16:51;20.40;99.90
17007;DHT22;8620;51.168;4.154;2022-09-13T04:19:18;20.30;99.90
17007;DHT22;8620;51.168;4.154;2022-09-13T04:22:02;20.10;99.90
17007;DHT22;8620;51.168;4.154;2022-09-13T04:24:29;20.10;99.90
17007;DHT22;8620;51.168;4.154;2022-09-13T04:26:58;20.00;99.90
17007;DHT22;8620;51.168;4.154;2022-09-13T04:29:25;20.00;99.90
17007;DHT22;8620;51.168;4.154;2022-09-13T04:31:52;20.00;99.90
17007;DHT22;8620;51.168;4.154;2022-09-13T04:34:19;19.90;99.90
17007;DHT22;8620;51.168;4.154;2022-09-13T04:36:48;19.90;99.90
17007;DHT22;8620;51.168;4.154;2022-09-13T04:39:14;20.00;99.90
17007;DHT22;8620;51.168;4.154;2022-09-13T04:41:41;20.10;99.90
17007;DHT22;8620;51.168;4.154;2022-09-13T04:44:09;20.10;99.90
17007;DHT22;8620;51.168;4.154;2022-09-13T04:46:35;20.00;99.90
17007;DHT22;8620;51.168;4.154;2022-09-13T04:49:01;20.10;99.90
17007;DHT22;8620;51.168;4.154;2022-09-13T04:51:27;20.30;99.90
17007;DHT22;8620;51.168;4.154;2022-09-13T04:53:54;20.20;99.90
17007;DHT22;8620;51.168;4.154;2022-09-13T04:56:23;20.10;99.90
17007;DHT22;8620;51.168;4.154;2022-09-13T04:58:50;20.30;99.90
17007;DHT22;8620;51.168;4.154;2022-09-13T05:01:16;20.30;99.90
17007;DHT22;8620;51.168;4.154;2022-09-13T05:03:45;20.20;99.90
17007;DHT22;8620;51.168;4.154;2022-09-13T05:06:15;20.30;99.90
17007;DHT22;8620;51.168;4.154;2022-09-13T05:08:51;20.20;99.90
17007;DHT22;8620;51.168;4.154;2022-09-13T05:11:24;20.20;99.90
17007;DHT22;8620;51.168;4.154;2022-09-13T05:13:52;20.20;99.90
17007;DHT22;8620;51.168;4.154;2022-09-13T05:16:25;20.20;99.90
17007;DHT22;8620;51.168;4.154;2022-09-13T05:18:53;20.30;99.90
17007;DHT22;8620;51.168;4.154;2022-09-13T05:21:21;20.30;99.90
17007;DHT22;8620;51.168;4.154;2022-09-13T05:23:49;20.40;99.90
17007;DHT22;8620;51.168;4.154;2022-09-13T05:26:20;20.40;99.90
17007;DHT22;8620;51.168;4.154;2022-09-13T05:28:47;20.40;99.90
17007;DHT22;8620;51.168;4.154;2022-09-13T05:31:21;20.30;99.90
17007;DHT22;8620;51.168;4.154;2022-09-13T05:34:00;20.30;99.90
17007;DHT22;8620;51.168;4.154;2022-09-13T05:39:16;20.20;99.90
17007;DHT22;8620;51.168;4.154;2022-09-13T05:41:42;20.20;99.90
17007;DHT22;8620;51.168;4.154;2022-09-13T05:44:09;20.20;99.90
17007;DHT22;8620;51.168;4.154;2022-09-13T05:46:36;20.20;99.90
17007;DHT22;8620;51.168;4.154;2022-09-13T05:49:02;19.90;99.90
17007;DHT22;8620;51.168;4.154;2022-09-13T05:51:28;19.80;99.90
17007;DHT22;8620;51.168;4.154;2022-09-13T05:53:54;20.00;99.90
17007;DHT22;8620;51.168;4.154;2022-09-13T05:56:28;20.10;99.90
17007;DHT22;8620;51.168;4.154;2022-09-13T05:59:02;20.20;99.90
17007;DHT22;8620;51.168;4.154;2022-09-13T06:01:28;20.40;99.90
17007;DHT22;8620;51.168;4.154;2022-09-13T06:03:58;20.40;99.90
17007;DHT22;8620;51.168;4.154;2022-09-13T06:06:25;20.50;99.90
17007;DHT22;8620;51.168;4.154;2022-09-13T06:08:59;20.50;99.90
17007;DHT22;8620;51.168;4.154;2022-09-13T06:11:27;20.50;99.90
17007;DHT22;8620;51.168;4.154;2022-09-13T06:13:55;20.60;99.90
17007;DHT22;8620;51.168;4.154;2022-09-13T06:16:21;20.60;99.90
17007;DHT22;8620;51.168;4.154;2022-09-13T06:18:47;20.70;99.90
17007;DHT22;8620;51.168;4.154;2022-09-13T06:21:18;20.80;99.90
17007;DHT22;8620;51.168;4.154;2022-09-13T06:23:50;20.50;99.90
17007;DHT22;8620;51.168;4.154;2022-09-13T06:26:19;20.10;99.90
17007;DHT22;8620;51.168;4.154;2022-09-13T06:28:48;19.90;99.90
17007;DHT22;8620;51.168;4.154;2022-09-13T06:31:19;19.70;99.90
17007;DHT22;8620;51.168;4.154;2022-09-13T06:33:46;19.80;99.90
17007;DHT22;8620;51.168;4.154;2022-09-13T06:38:43;20.30;99.90
17007;DHT22;8620;51.168;4.154;2022-09-13T06:41:15;20.20;99.90
17007;DHT22;8620;51.168;4.154;2022-09-13T06:43:45;19.90;99.90
17007;DHT22;8620;51.168;4.154;2022-09-13T06:46:14;19.90;99.90
17007;DHT22;8620;51.168;4.154;2022-09-13T06:48:43;20.20;99.90
17007;DHT22;8620;51.168;4.154;2022-09-13T06:51:12;20.20;99.90
17007;DHT22;8620;51.168;4.154;2022-09-13T06:53:44;20.30;99.90
17007;DHT22;8620;51.168;4.154;2022-09-13T06:56:20;20.50;99.90
17007;DHT22;8620;51.168;4.154;2022-09-13T06:59:00;20.40;99.90
17007;DHT22;8620;51.168;4.154;2022-09-13T07:01:38;20.60;99.90
17007;DHT22;8620;51.168;4.154;2022-09-13T07:04:15;20.60;99.90
17007;DHT22;8620;51.168;4.154;2022-09-13T07:06:46;21.20;99.90
17007;DHT22;8620;51.168;4.154;2022-09-13T07:09:17;21.20;99.90
17007;DHT22;8620;51.168;4.154;2022-09-13T07:11:45;21.10;99.90
17007;DHT22;8620;51.168;4.154;2022-09-13T07:14:14;21.50;99.90
17007;DHT22;8620;51.168;4.154;2022-09-13T07:16:47;21.80;99.90
17007;DHT22;8620;51.168;4.154;2022-09-13T07:19:21;22.10;99.90
17007;DHT22;8620;51.168;4.154;2022-09-13T07:21:52;22.40;99.90
17007;DHT22;8620;51.168;4.154;2022-09-13T07:24:18;22.50;99.90
17007;DHT22;8620;51.168;4.154;2022-09-13T07:26:45;22.70;99.90
17007;DHT22;8620;51.168;4.154;2022-09-13T07:29:15;22.80;99.90
17007;DHT22;8620;51.168;4.154;2022-09-13T07:31:46;22.90;99.90
17007;DHT22;8620;51.168;4.154;2022-09-13T07:34:17;23.20;99.90
17007;DHT22;8620;51.168;4.154;2022-09-13T07:36:45;23.40;99.90
17007;DHT22;8620;51.168;4.154;2022-09-13T07:39:12;23.50;99.90
17007;DHT22;8620;51.168;4.154;2022-09-13T07:41:39;23.80;99.90
17007;DHT22;8620;51.168;4.154;2022-09-13T07:44:05;23.90;99.90
17007;DHT22;8620;51.168;4.154;2022-09-13T07:46:34;24.10;99.90
17007;DHT22;8620;51.168;4.154;2022-09-13T07:49:09;23.50;99.90
17007;DHT22;8620;51.168;4.154;2022-09-13T07:51:41;23.40;99.90
17007;DHT22;8620;51.168;4.154;2022-09-13T07:54:15;23.60;99.90
17007;DHT22;8620;51.168;4.154;2022-09-13T07:56:42;23.50;99.90
17007;DHT22;8620;51.168;4.154;2022-09-13T07:59:14;23.10;99.90
17007;DHT22;8620;51.168;4.154;2022-09-13T08:02:03;23.30;99.90
17007;DHT22;8620;51.168;4.154;2022-09-13T08:04:29;24.20;99.90
17007;DHT22;8620;51.168;4.154;2022-09-13T08:06:55;24.40;99.90
17007;DHT22;8620;51.168;4.154;2022-09-13T08:09:21;24.50;99.90
17007;DHT22;8620;51.168;4.154;2022-09-13T08:11:49;24.60;99.90
17007;DHT22;8620;51.168;4.154;2022-09-13T08:14:20;24.70;99.90
17007;DHT22;8620;51.168;4.154;2022-09-13T08:16:46;25.20;99.90
17007;DHT22;8620;51.168;4.154;2022-09-13T08:19:15;26.10;99.90
17007;DHT22;8620;51.168;4.154;2022-09-13T08:21:42;27.00;99.90
17007;DHT22;8620;51.168;4.154;2022-09-13T08:24:16;27.60;99.90
17007;DHT22;8620;51.168;4.154;2022-09-13T08:26:43;28.20;99.90
17007;DHT22;8620;51.168;4.154;2022-09-13T08:29:12;27.80;99.90
17007;DHT22;8620;51.168;4.154;2022-09-13T08:31:39;26.80;99.90
17007;DHT22;8620;51.168;4.154;2022-09-13T08:34:08;26.40;99.90
17007;DHT22;8620;51.168;4.154;2022-09-13T08:36:46;26.80;99.90
17007;DHT22;8620;51.168;4.154;2022-09-13T08:39:12;26.90;99.90
17007;DHT22;8620;51.168;4.154;2022-09-13T08:44:15;26.00;99.90
17007;DHT22;8620;51.168;4.154;2022-09-13T08:47:37;25.90;99.90
17007;DHT22;8620;51.168;4.154;2022-09-13T08:50:20;25.80;99.90
17007;DHT22;8620;51.168;4.154;2022-09-13T09:07:20;24.60;99.90
17007;DHT22;8620;51.168;4.154;2022-09-13T09:10:02;24.70;99.90
17007;DHT22;8620;51.168;4.154;2022-09-13T09:13:02;25.10;99.90
17007;DHT22;8620;51.168;4.154;2022-09-13T09:15:41;25.60;99.90
17007;DHT22;8620;51.168;4.154;2022-09-13T09:18:12;25.60;99.90
17007;DHT22;8620;51.168;4.154;2022-09-13T09:20:55;25.20;99.90
17007;DHT22;8620;51.168;4.154;2022-09-13T09:23:38;25.00;99.90
17007;DHT22;8620;51.168;4.154;2022-09-13T09:29:20;25.10;99.90
17007;DHT22;8620;51.168;4.154;2022-09-13T09:32:11;25.40;99.90
17007;DHT22;8620;51.168;4.154;2022-09-13T09:35:09;26.00;99.90
17007;DHT22;8620;51.168;4.154;2022-09-13T09:37:38;26.90;99.90
17007;DHT22;8620;51.168;4.154;2022-09-13T09:40:09;27.60;99.90
17007;DHT22;8620;51.168;4.154;2022-09-13T09:42:42;27.60;99.90
17007;DHT22;8620;51.168;4.154;2022-09-13T09:48:04;27.40;99.90
17007;DHT22;8620;51.168;4.154;2022-09-13T09:50:39;27.80;99.90
17007;DHT22;8620;51.168;4.154;2022-09-13T09:53:36;28.50;99.90
17007;DHT22;8620;51.168;4.154;2022-09-13T09:56:23;28.20;99.90
17007;DHT22;8620;51.168;4.154;2022-09-13T09:58:53;28.00;99.90
17007;DHT22;8620;51.168;4.154;2022-09-13T10:01:30;28.00;99.90
17007;DHT22;8620;51.168;4.154;2022-09-13T10:06:30;27.20;99.90
17007;DHT22;8620;51.168;4.154;2022-09-13T10:11:48;27.20;99.90
17007;DHT22;8620;51.168;4.154;2022-09-13T10:14:35;27.20;99.90
17007;DHT22;8620;51.168;4.154;2022-09-13T10:20:00;27.30;99.90
17007;DHT22;8620;51.168;4.154;2022-09-13T10:33:33;26.00;99.90
17007;DHT22;8620;51.168;4.154;2022-09-13T10:36:11;26.10;99.90
17007;DHT22;8620;51.168;4.154;2022-09-13T10:39:03;26.50;99.90
17007;DHT22;8620;51.168;4.154;2022-09-13T10:41:32;25.70;99.90
17007;DHT22;8620;51.168;4.154;2022-09-13T10:44:02;25.70;99.90
17007;DHT22;8620;51.168;4.154;2022-09-13T10:46:32;25.50;99.90
17007;DHT22;8620;51.168;4.154;2022-09-13T10:49:00;25.30;99.90
17007;DHT22;8620;51.168;4.154;2022-09-13T10:54:22;26.30;99.90
17007;DHT22;8620;51.168;4.154;2022-09-13T10:56:49;26.20;99.90
17007;DHT22;8620;51.168;4.154;2022-09-13T10:59:28;26.10;99.90
17007;DHT22;8620;51.168;4.154;2022-09-13T11:10:48;26.30;99.90
17007;DHT22;8620;51.168;4.154;2022-09-13T11:13:57;26.40;99.90
17007;DHT22;8620;51.168;4.154;2022-09-13T11:28:34;27.30;99.90
17007;DHT22;8620;51.168;4.154;2022-09-13T11:34:38;27.20;99.90
17007;DHT22;8620;51.168;4.154;2022-09-13T11:37:21;27.50;99.90
17007;DHT22;8620;51.168;4.154;2022-09-13T11:57:53;28.80;99.90
17007;DHT22;8620;51.168;4.154;2022-09-13T12:00:23;28.60;99.90
17007;DHT22;8620;51.168;4.154;2022-09-13T12:05:42;28.80;99.90
17007;DHT22;8620;51.168;4.154;2022-09-13T12:08:29;29.20;99.90
17007;DHT22;8620;51.168;4.154;2022-09-13T12:11:05;29.00;99.90
17007;DHT22;8620;51.168;4.154;2022-09-13T12:16:22;28.20;99.90
17007;DHT22;8620;51.168;4.154;2022-09-13T12:18:55;27.70;99.90
17007;DHT22;8620;51.168;4.154;2022-09-13T12:21:26;28.20;99.90
17007;DHT22;8620;51.168;4.154;2022-09-13T12:26:38;27.30;99.90
17007;DHT22;8620;51.168;4.154;2022-09-13T12:29:39;26.60;99.90
17007;DHT22;8620;51.168;4.154;2022-09-13T12:32:28;26.30;99.90
17007;DHT22;8620;51.168;4.154;2022-09-13T12:38:17;26.70;99.90
17007;DHT22;8620;51.168;4.154;2022-09-13T12:47:13;26.40;99.90
17007;DHT22;8620;51.168;4.154;2022-09-13T12:56:11;27.10;99.90
17007;DHT22;8620;51.168;4.154;2022-09-13T12:59:21;26.80;99.90
17007;DHT22;8620;51.168;4.154;2022-09-13T13:02:35;26.70;99.90
17007;DHT22;8620;51.168;4.154;2022-09-13T13:05:27;26.90;99.90
17007;DHT22;8620;51.168;4.154;2022-09-13T13:08:02;26.80;99.90
17007;DHT22;8620;51.168;4.154;2022-09-13T13:10:34;26.70;99.90
17007;DHT22;8620;51.168;4.154;2022-09-13T13:13:22;26.20;99.90
17007;DHT22;8620;51.168;4.154;2022-09-13T13:15:58;25.90;99.90
17007;DHT22;8620;51.168;4.154;2022-09-13T13:18:47;26.00;99.90
17007;DHT22;8620;51.168;4.154;2022-09-13T13:26:54;26.00;99.90
17007;DHT22;8620;51.168;4.154;2022-09-13T13:29:29;26.10;99.90
17007;DHT22;8620;51.168;4.154;2022-09-13T13:42:24;25.50;99.90
17007;DHT22;8620;51.168;4.154;2022-09-13T13:45:15;25.60;99.90
17007;DHT22;8620;51.168;4.154;2022-09-13T13:53:45;25.00;99.90
17007;DHT22;8620;51.168;4.154;2022-09-13T13:56:46;25.00;99.90
17007;DHT22;8620;51.168;4.154;2022-09-13T13:59:32;25.00;99.90
17007;DHT22;8620;51.168;4.154;2022-09-13T14:01:58;25.10;99.90
17007;DHT22;8620;51.168;4.154;2022-09-13T14:07:58;24.90;99.90
17007;DHT22;8620;51.168;4.154;2022-09-13T14:13:50;24.60;99.90
17007;DHT22;8620;51.168;4.154;2022-09-13T14:19:42;24.00;99.90
17007;DHT22;8620;51.168;4.154;2022-09-13T14:22:21;23.80;99.90
17007;DHT22;8620;51.168;4.154;2022-09-13T14:24:56;23.80;99.90
17007;DHT22;8620;51.168;4.154;2022-09-13T14:27:29;24.00;99.90
17007;DHT22;8620;51.168;4.154;2022-09-13T14:30:34;24.00;99.90
17007;DHT22;8620;51.168;4.154;2022-09-13T14:33:01;24.00;99.90
17007;DHT22;8620;51.168;4.154;2022-09-13T14:35:55;24.20;99.90
17007;DHT22;8620;51.168;4.154;2022-09-13T14:38:25;24.00;99.90
17007;DHT22;8620;51.168;4.154;2022-09-13T14:40:59;24.00;99.90
17007;DHT22;8620;51.168;4.154;2022-09-13T14:44:19;24.10;99.90
17007;DHT22;8620;51.168;4.154;2022-09-13T14:47:07;24.30;99.90
17007;DHT22;8620;51.168;4.154;2022-09-13T14:49:52;24.20;99.90
17007;DHT22;8620;51.168;4.154;2022-09-13T14:52:57;24.20;99.90
17007;DHT22;8620;51.168;4.154;2022-09-13T14:55:30;24.10;99.90
17007;DHT22;8620;51.168;4.154;2022-09-13T14:58:01;24.00;99.90
17007;DHT22;8620;51.168;4.154;2022-09-13T15:00:34;23.80;99.90
17007;DHT22;8620;51.168;4.154;2022-09-13T15:03:15;24.10;99.90
17007;DHT22;8620;51.168;4.154;2022-09-13T15:05:51;24.10;99.90
17007;DHT22;8620;51.168;4.154;2022-09-13T15:08:43;24.00;99.90
17007;DHT22;8620;51.168;4.154;2022-09-13T15:11:37;23.70;99.90
17007;DHT22;8620;51.168;4.154;2022-09-13T15:14:32;23.50;99.90
17007;DHT22;8620;51.168;4.154;2022-09-13T15:17:11;23.20;99.90
17007;DHT22;8620;51.168;4.154;2022-09-13T15:19:40;22.80;99.90
17007;DHT22;8620;51.168;4.154;2022-09-13T15:22:24;22.40;99.90
17007;DHT22;8620;51.168;4.154;2022-09-13T15:24:56;22.50;99.90
17007;DHT22;8620;51.168;4.154;2022-09-13T15:28:02;22.40;99.90
17007;DHT22;8620;51.168;4.154;2022-09-13T15:30:41;22.40;99.90
17007;DHT22;8620;51.168;4.154;2022-09-13T15:33:14;22.50;99.90
17007;DHT22;8620;51.168;4.154;2022-09-13T15:35:44;22.40;99.90
17007;DHT22;8620;51.168;4.154;2022-09-13T15:38:30;22.60;99.90
17007;DHT22;8620;51.168;4.154;2022-09-13T15:41:19;22.60;99.90
17007;DHT22;8620;51.168;4.154;2022-09-13T15:43:49;22.70;99.90
17007;DHT22;8620;51.168;4.154;2022-09-13T15:46:17;23.00;99.90
17007;DHT22;8620;51.168;4.154;2022-09-13T15:48:50;23.20;99.90
17007;DHT22;8620;51.168;4.154;2022-09-13T15:51:25;23.30;99.90
17007;DHT22;8620;51.168;4.154;2022-09-13T15:53:55;23.40;99.90
17007;DHT22;8620;51.168;4.154;2022-09-13T15:56:34;23.50;99.90
17007;DHT22;8620;51.168;4.154;2022-09-13T15:59:17;23.30;99.90
17007;DHT22;8620;51.168;4.154;2022-09-13T16:02:21;23.20;99.90
17007;DHT22;8620;51.168;4.154;2022-09-13T16:12:11;22.90;99.90
17007;DHT22;8620;51.168;4.154;2022-09-13T16:14:38;22.80;99.90
17007;DHT22;8620;51.168;4.154;2022-09-13T16:17:11;22.50;99.90
17007;DHT22;8620;51.168;4.154;2022-09-13T16:20:06;22.10;99.90
17007;DHT22;8620;51.168;4.154;2022-09-13T16:22:50;21.90;99.90
17007;DHT22;8620;51.168;4.154;2022-09-13T16:25:31;21.90;99.90
17007;DHT22;8620;51.168;4.154;2022-09-13T16:28:23;22.20;99.90
17007;DHT22;8620;51.168;4.154;2022-09-13T16:30:54;22.70;99.90
17007;DHT22;8620;51.168;4.154;2022-09-13T16:33:20;22.80;99.90
17007;DHT22;8620;51.168;4.154;2022-09-13T16:35:46;22.70;99.90
17007;DHT22;8620;51.168;4.154;2022-09-13T16:38:13;22.30;99.90
17007;DHT22;8620;51.168;4.154;2022-09-13T16:40:40;22.00;99.90
17007;DHT22;8620;51.168;4.154;2022-09-13T16:43:07;21.80;99.90
17007;DHT22;8620;51.168;4.154;2022-09-13T16:45:37;21.50;99.90
17007;DHT22;8620;51.168;4.154;2022-09-13T16:48:05;21.20;99.90
17007;DHT22;8620;51.168;4.154;2022-09-13T16:50:32;21.20;99.90
17007;DHT22;8620;51.168;4.154;2022-09-13T16:52:58;21.30;99.90
17007;DHT22;8620;51.168;4.154;2022-09-13T16:55:25;21.40;99.90
17007;DHT22;8620;51.168;4.154;2022-09-13T16:58:10;21.50;99.90
17007;DHT22;8620;51.168;4.154;2022-09-13T17:04:17;21.50;99.90
17007;DHT22;8620;51.168;4.154;2022-09-13T17:06:46;21.10;99.90
17007;DHT22;8620;51.168;4.154;2022-09-13T17:09:12;21.10;99.90
17007;DHT22;8620;51.168;4.154;2022-09-13T17:11:45;20.90;99.90
17007;DHT22;8620;51.168;4.154;2022-09-13T17:14:16;20.90;99.90
17007;DHT22;8620;51.168;4.154;2022-09-13T17:16:49;21.10;99.90
17007;DHT22;8620;51.168;4.154;2022-09-13T17:19:28;21.20;99.90
17007;DHT22;8620;51.168;4.154;2022-09-13T17:21:59;21.50;99.90
17007;DHT22;8620;51.168;4.154;2022-09-13T17:24:28;21.70;99.90
17007;DHT22;8620;51.168;4.154;2022-09-13T17:26:59;21.60;99.90
17007;DHT22;8620;51.168;4.154;2022-09-13T17:29:25;21.70;99.90
17007;DHT22;8620;51.168;4.154;2022-09-13T17:31:58;21.70;99.90
17007;DHT22;8620;51.168;4.154;2022-09-13T17:34:25;21.80;99.90
17007;DHT22;8620;51.168;4.154;2022-09-13T17:36:51;21.60;99.90
17007;DHT22;8620;51.168;4.154;2022-09-13T17:39:17;21.40;99.90
17007;DHT22;8620;51.168;4.154;2022-09-13T17:41:44;21.30;99.90
17007;DHT22;8620;51.168;4.154;2022-09-13T17:44:10;21.50;99.90
17007;DHT22;8620;51.168;4.154;2022-09-13T17:46:37;21.60;99.90
17007;DHT22;8620;51.168;4.154;2022-09-13T17:49:03;21.50;99.90
17007;DHT22;8620;51.168;4.154;2022-09-13T17:52:04;21.50;99.90
17007;DHT22;8620;51.168;4.154;2022-09-13T17:54:35;21.30;99.90
17007;DHT22;8620;51.168;4.154;2022-09-13T17:57:25;20.90;99.90
17007;DHT22;8620;51.168;4.154;2022-09-13T18:00:44;20.60;99.90
17007;DHT22;8620;51.168;4.154;2022-09-13T18:03:32;20.60;99.90
17007;DHT22;8620;51.168;4.154;2022-09-13T18:06:01;20.50;99.90
17007;DHT22;8620;51.168;4.154;2022-09-13T18:08:51;20.50;99.90
17007;DHT22;8620;51.168;4.154;2022-09-13T18:11:52;20.50;99.90
17007;DHT22;8620;51.168;4.154;2022-09-13T18:14:23;20.30;99.90
17007;DHT22;8620;51.168;4.154;2022-09-13T18:16:53;20.20;99.90
17007;DHT22;8620;51.168;4.154;2022-09-13T18:19:48;20.00;99.90
17007;DHT22;8620;51.168;4.154;2022-09-13T18:22:20;19.80;99.90
17007;DHT22;8620;51.168;4.154;2022-09-13T18:24:51;19.80;99.90
17007;DHT22;8620;51.168;4.154;2022-09-13T18:27:35;19.60;99.90
17007;DHT22;8620;51.168;4.154;2022-09-13T18:30:07;19.60;99.90
17007;DHT22;8620;51.168;4.154;2022-09-13T18:32:33;19.70;99.90
17007;DHT22;8620;51.168;4.154;2022-09-13T18:35:02;19.80;99.90
17007;DHT22;8620;51.168;4.154;2022-09-13T18:37:31;20.00;99.90
17007;DHT22;8620;51.168;4.154;2022-09-13T18:39:58;20.20;99.90
17007;DHT22;8620;51.168;4.154;2022-09-13T18:42:28;20.20;99.90
17007;DHT22;8620;51.168;4.154;2022-09-13T18:44:56;20.30;99.90
17007;DHT22;8620;51.168;4.154;2022-09-13T18:47:25;20.20;99.90
17007;DHT22;8620;51.168;4.154;2022-09-13T18:49:51;20.10;99.90
17007;DHT22;8620;51.168;4.154;2022-09-13T18:52:20;20.00;99.90
17007;DHT22;8620;51.168;4.154;2022-09-13T18:54:46;19.90;99.90
17007;DHT22;8620;51.168;4.154;2022-09-13T18:57:12;19.80;99.90
17007;DHT22;8620;51.168;4.154;2022-09-13T18:59:37;19.80;99.90
17007;DHT22;8620;51.168;4.154;2022-09-13T19:02:05;20.00;99.90
17007;DHT22;8620;51.168;4.154;2022-09-13T19:04:36;20.20;99.90
17007;DHT22;8620;51.168;4.154;2022-09-13T19:07:02;20.20;99.90
17007;DHT22;8620;51.168;4.154;2022-09-13T19:09:32;20.20;99.90
17007;DHT22;8620;51.168;4.154;2022-09-13T19:12:00;20.30;99.90
17007;DHT22;8620;51.168;4.154;2022-09-13T19:14:33;20.30;99.90
17007;DHT22;8620;51.168;4.154;2022-09-13T19:16:59;20.30;99.90
17007;DHT22;8620;51.168;4.154;2022-09-13T19:19:31;20.40;99.90
17007;DHT22;8620;51.168;4.154;2022-09-13T19:21:59;20.30;99.90
17007;DHT22;8620;51.168;4.154;2022-09-13T19:24:30;20.20;99.90
17007;DHT22;8620;51.168;4.154;2022-09-13T19:26:56;19.90;99.90
17007;DHT22;8620;51.168;4.154;2022-09-13T19:29:27;19.80;99.90
17007;DHT22;8620;51.168;4.154;2022-09-13T19:31:53;19.60;99.90
17007;DHT22;8620;51.168;4.154;2022-09-13T19:34:21;19.40;99.90
17007;DHT22;8620;51.168;4.154;2022-09-13T19:36:51;19.30;99.90
17007;DHT22;8620;51.168;4.154;2022-09-13T19:46:49;18.90;99.90
17007;DHT22;8620;51.168;4.154;2022-09-13T19:49:16;19.10;99.90
17007;DHT22;8620;51.168;4.154;2022-09-13T19:51:47;18.90;99.90
17007;DHT22;8620;51.168;4.154;2022-09-13T19:54:19;18.90;99.90
17007;DHT22;8620;51.168;4.154;2022-09-13T19:56:50;18.90;99.90
17007;DHT22;8620;51.168;4.154;2022-09-13T19:59:18;18.90;99.90
17007;DHT22;8620;51.168;4.154;2022-09-13T20:01:47;19.00;99.90
17007;DHT22;8620;51.168;4.154;2022-09-13T20:04:16;18.80;99.90
17007;DHT22;8620;51.168;4.154;2022-09-13T20:06:53;18.80;99.90
17007;DHT22;8620;51.168;4.154;2022-09-13T20:09:24;18.80;99.90
17007;DHT22;8620;51.168;4.154;2022-09-13T20:11:56;18.90;99.90
17007;DHT22;8620;51.168;4.154;2022-09-13T20:14:25;19.10;99.90
17007;DHT22;8620;51.168;4.154;2022-09-13T20:16:54;19.10;99.90
17007;DHT22;8620;51.168;4.154;2022-09-13T20:19:28;19.30;99.90
17007;DHT22;8620;51.168;4.154;2022-09-13T20:21:59;19.50;99.90
17007;DHT22;8620;51.168;4.154;2022-09-13T20:24:33;19.30;99.90
17007;DHT22;8620;51.168;4.154;2022-09-13T20:27:07;19.10;99.90
17007;DHT22;8620;51.168;4.154;2022-09-13T20:29:39;19.00;99.90
17007;DHT22;8620;51.168;4.154;2022-09-13T20:32:11;18.90;99.90
17007;DHT22;8620;51.168;4.154;2022-09-13T20:34:45;18.80;99.90